Time;durP1;ratioP1;P1;durP2;ratioP2;P2;SDS_P1;SDS_P2;PMS_P1;PMS_P2;Temp;Humidity;BMP_temperature;BMP_pressure;BME280_temperature;BME280_humidity;BME280_pressure;Samples;Min_cycle;Max_cycle;Signal;HPM_P1;HPM_P2
2023/11/05 00:01:33;;;;;;;20.92;19.73;;;;;;;;;;5060057;28;20017;-62
2023/11/05 00:03:58;;;;;;;21.05;19.95;;;;;;;;;;5058241;28;20024;-62
2023/11/05 00:06:23;;;;;;;22.35;21.05;;;;;;;;;;5054632;28;20058;-65
2023/11/05 00:08:49;;;;;;;21.42;20.23;;;;;;;;;;5060782;28;20042;-64
2023/11/05 00:11:15;;;;;;;20.48;19.38;;;;;;;;;;5055735;28;20488;-62
2023/11/05 00:13:40;;;;;;;20.05;18.88;;;;;;;;;;5055205;28;20032;-65
2023/11/05 00:16:06;;;;;;;20.77;19.67;;;;;;;;;;5055773;28;20142;-66
2023/11/05 00:18:31;;;;;;;20.52;19.42;;;;;;;;;;5055524;28;20033;-65
2023/11/05 00:20:57;;;;;;;19.77;18.33;;;;;;;;;;5054546;28;20063;-64
2023/11/05 00:23:23;;;;;;;20.23;19.13;;;;;;;;;;5058066;28;20040;-61
2023/11/05 00:25:49;;;;;;;20.58;19.38;;;;;;;;;;5062288;28;21087;-64
2023/11/05 00:28:14;;;;;;;20.77;19.67;;;;;;;;;;5053330;28;20082;-63
2023/11/05 00:30:39;;;;;;;22.13;20.92;;;;;;;;;;5058183;28;20470;-64
2023/11/05 00:33:06;;;;;;;21.42;20.25;;;;;;;;;;5056895;28;20052;-64
2023/11/05 00:35:31;;;;;;;22.38;21.17;;;;;;;;;;5057758;28;20032;-63
2023/11/05 00:37:57;;;;;;;23.38;21.25;;;;;;;;;;5054235;28;20362;-63
2023/11/05 00:40:22;;;;;;;20.92;19.80;;;;;;;;;;5053548;28;20093;-64
2023/11/05 00:42:47;;;;;;;21.20;20.08;;;;;;;;;;5052517;28;20070;-64
2023/11/05 00:45:13;;;;;;;19.35;18.30;;;;;;;;;;5057868;28;20057;-63
2023/11/05 00:47:39;;;;;;;28.88;19.58;;;;;;;;;;5055769;28;20029;-63
2023/11/05 00:50:04;;;;;;;22.17;20.67;;;;;;;;;;5054184;28;20128;-64
2023/11/05 00:52:30;;;;;;;19.73;18.63;;;;;;;;;;5054913;28;20040;-65
2023/11/05 00:54:55;;;;;;;19.67;18.60;;;;;;;;;;5056030;28;20194;-64
2023/11/05 00:57:20;;;;;;;21.83;20.48;;;;;;;;;;5055353;28;20040;-63
2023/11/05 00:59:46;;;;;;;20.90;19.80;;;;;;;;;;5056054;28;20078;-63
2023/11/05 01:02:11;;;;;;;20.65;19.55;;;;;;;;;;5055825;28;20526;-64
2023/11/05 01:04:37;;;;;;;22.10;20.90;;;;;;;;;;5054087;28;20052;-63
2023/11/05 01:07:02;;;;;;;20.70;19.60;;;;;;;;;;5055731;28;20025;-62
2023/11/05 01:09:27;;;;;;;20.20;19.10;;;;;;;;;;5055380;28;20405;-61
2023/11/05 01:11:53;;;;;;;21.58;20.45;;;;;;;;;;5055129;28;20032;-65
2023/11/05 01:14:18;;;;;;;21.15;20.05;;;;;;;;;;5053217;28;20420;-64
2023/11/05 01:16:43;;;;;;;21.75;20.55;;;;;;;;;;5059824;28;20123;-64
2023/11/05 01:19:09;;;;;;;21.15;20.00;;;;;;;;;;5059636;28;20148;-63
2023/11/05 01:21:34;;;;;;;21.23;20.13;;;;;;;;;;5061185;28;20029;-64
2023/11/05 01:24:00;;;;;;;22.45;21.13;;;;;;;;;;5059781;28;20123;-63
2023/11/05 01:26:25;;;;;;;20.65;19.55;;;;;;;;;;5056713;28;20052;-64
2023/11/05 01:28:50;;;;;;;21.08;19.95;;;;;;;;;;5055235;28;20036;-61
2023/11/05 01:31:16;;;;;;;20.73;19.60;;;;;;;;;;5058179;28;20041;-60
2023/11/05 01:33:43;;;;;;;21.77;20.48;;;;;;;;;;5059485;28;20032;-60
2023/11/05 01:36:09;;;;;;;21.98;20.77;;;;;;;;;;5061912;28;20036;-60
2023/11/05 01:38:34;;;;;;;22.42;21.08;;;;;;;;;;5061533;28;20501;-60
2023/11/05 01:40:59;;;;;;;25.48;24.08;;;;;;;;;;5059123;28;20036;-60
2023/11/05 01:43:26;;;;;;;23.27;22.02;;;;;;;;;;5058119;28;20053;-64
2023/11/05 01:45:51;;;;;;;23.13;21.92;;;;;;;;;;5061560;28;20100;-63
2023/11/05 01:48:17;;;;;;;23.00;21.80;;;;;;;;;;5059442;28;20032;-63
2023/11/05 01:50:43;;;;;;;23.02;21.83;;;;;;;;;;5057530;28;20229;-63
2023/11/05 01:53:08;;;;;;;23.77;22.52;;;;;;;;;;5060736;28;20041;-64
2023/11/05 01:55:36;;;;;;;27.25;25.65;;;;;;;;;;5058155;28;20064;-60
2023/11/05 01:58:03;;;;;;;26.70;25.27;;;;;;;;;;5060208;28;20485;-63
2023/11/05 02:00:30;;;;;;;25.85;24.45;;;;;;;;;;5058431;28;20370;-60
2023/11/05 02:02:56;;;;;;;26.30;24.90;;;;;;;;;;5058704;28;20110;-60
2023/11/05 02:05:22;;;;;;;26.30;24.90;;;;;;;;;;5056167;28;20494;-60
2023/11/05 02:07:48;;;;;;;26.60;25.20;;;;;;;;;;5055790;28;20191;-60
2023/11/05 02:10:13;;;;;;;28.98;27.42;;;;;;;;;;5060250;28;20308;-60
2023/11/05 02:12:38;;;;;;;29.67;28.13;;;;;;;;;;5058992;28;20397;-63
2023/11/05 02:15:05;;;;;;;27.42;25.92;;;;;;;;;;5062411;28;20044;-62
2023/11/05 02:17:31;;;;;;;29.30;27.80;;;;;;;;;;5059930;28;20036;-63
2023/11/05 02:19:57;;;;;;;30.55;28.95;;;;;;;;;;5058152;28;20048;-63
2023/11/05 02:22:26;;;;;;;28.10;26.60;;;;;;;;;;5058127;28;20036;-62
2023/11/05 02:24:51;;;;;;;28.02;26.52;;;;;;;;;;5058170;28;20465;-62
2023/11/05 02:27:16;;;;;;;28.13;26.52;;;;;;;;;;5058365;28;20036;-60
2023/11/05 02:29:42;;;;;;;27.73;26.27;;;;;;;;;;5057652;28;20032;-59
2023/11/05 02:32:07;;;;;;;26.35;24.95;;;;;;;;;;5063137;28;20036;-59
2023/11/05 02:34:33;;;;;;;25.88;24.48;;;;;;;;;;5060589;28;20067;-60
2023/11/05 02:36:58;;;;;;;26.23;24.83;;;;;;;;;;5060276;28;20051;-63
2023/11/05 02:39:25;;;;;;;26.40;25.00;;;;;;;;;;5062965;28;20088;-62
2023/11/05 02:41:52;;;;;;;26.75;25.35;;;;;;;;;;5061689;28;20098;-61
2023/11/05 02:44:18;;;;;;;26.48;24.77;;;;;;;;;;5063562;28;20028;-62
2023/11/05 02:46:43;;;;;;;28.13;26.63;;;;;;;;;;5059649;28;20094;-62
2023/11/05 02:49:09;;;;;;;26.90;25.50;;;;;;;;;;5067092;28;20037;-62
2023/11/05 02:51:35;;;;;;;30.33;28.73;;;;;;;;;;5056922;28;20220;-62
2023/11/05 02:54:01;;;;;;;32.22;30.33;;;;;;;;;;5066526;28;20093;-61
2023/11/05 02:56:27;;;;;;;30.23;28.63;;;;;;;;;;5063807;28;20108;-60
2023/11/05 02:58:52;;;;;;;31.98;30.08;;;;;;;;;;5059529;28;20162;-61
2023/11/05 03:01:22;;;;;;;31.50;29.88;;;;;;;;;;5064476;28;20044;-63
2023/11/05 03:03:48;;;;;;;28.50;27.00;;;;;;;;;;5057487;28;20166;-59
2023/11/05 03:06:14;;;;;;;27.80;26.35;;;;;;;;;;5058262;28;20298;-63
2023/11/05 03:08:40;;;;;;;26.48;25.08;;;;;;;;;;5059029;28;20032;-63
2023/11/05 03:11:05;;;;;;;25.20;23.90;;;;;;;;;;5059968;28;20072;-63
2023/11/05 03:13:30;;;;;;;25.67;24.33;;;;;;;;;;5055962;28;20144;-64
2023/11/05 03:15:56;;;;;;;24.70;23.40;;;;;;;;;;5059280;28;20033;-59
2023/11/05 03:18:22;;;;;;;25.60;24.25;;;;;;;;;;5063184;28;20028;-56
2023/11/05 03:20:47;;;;;;;24.67;23.38;;;;;;;;;;5056662;28;20194;-67
2023/11/05 03:23:12;;;;;;;24.85;23.40;;;;;;;;;;5059521;28;20086;-65
2023/11/05 03:25:40;;;;;;;26.10;24.70;;;;;;;;;;5057122;28;20102;-63
2023/11/05 03:28:06;;;;;;;26.75;25.25;;;;;;;;;;5060035;28;20028;-64
2023/11/05 03:30:32;;;;;;;25.95;24.25;;;;;;;;;;5058946;28;20036;-59
2023/11/05 03:32:57;;;;;;;25.17;23.67;;;;;;;;;;5062281;28;20104;-60
2023/11/05 03:35:23;;;;;;;25.20;23.90;;;;;;;;;;5062829;28;20148;-59
2023/11/05 03:37:48;;;;;;;24.63;23.33;;;;;;;;;;5058554;28;20037;-60
2023/11/05 03:40:13;;;;;;;25.05;23.75;;;;;;;;;;5059419;28;20040;-62
2023/11/05 03:42:39;;;;;;;25.30;23.98;;;;;;;;;;5062950;28;20028;-62
2023/11/05 03:45:05;;;;;;;27.92;26.42;;;;;;;;;;5061213;28;20364;-65
2023/11/05 03:47:30;;;;;;;25.15;23.85;;;;;;;;;;5057746;28;20032;-62
2023/11/05 03:49:55;;;;;;;29.40;27.90;;;;;;;;;;5058172;28;20226;-64
2023/11/05 03:52:21;;;;;;;32.80;31.10;;;;;;;;;;5062220;28;20438;-64
2023/11/05 03:54:46;;;;;;;35.03;33.22;;;;;;;;;;5057554;28;20470;-63
2023/11/05 03:57:12;;;;;;;35.55;33.75;;;;;;;;;;5060146;28;20062;-60
2023/11/05 03:59:38;;;;;;;36.13;34.28;;;;;;;;;;5060356;28;20127;-60
2023/11/05 04:02:04;;;;;;;34.38;32.58;;;;;;;;;;5061609;28;20032;-63
2023/11/05 04:04:30;;;;;;;31.23;29.63;;;;;;;;;;5055724;28;20055;-63
2023/11/05 04:06:56;;;;;;;31.48;29.88;;;;;;;;;;5061013;28;20469;-63
2023/11/05 04:09:22;;;;;;;30.30;28.70;;;;;;;;;;5057883;28;20131;-60
2023/11/05 04:11:47;;;;;;;32.05;30.35;;;;;;;;;;5058589;28;20032;-63
2023/11/05 04:14:13;;;;;;;30.65;28.75;;;;;;;;;;5060063;28;20040;-63
2023/11/05 04:16:38;;;;;;;29.48;27.95;;;;;;;;;;5060073;28;20393;-59
2023/11/05 04:19:03;;;;;;;28.70;27.17;;;;;;;;;;5061640;28;20028;-59
2023/11/05 04:21:29;;;;;;;28.13;26.65;;;;;;;;;;5063131;28;20025;-59
2023/11/05 04:23:54;;;;;;;30.27;28.67;;;;;;;;;;5065142;28;20039;-59
2023/11/05 04:26:20;;;;;;;32.92;31.23;;;;;;;;;;5062510;28;20032;-59
2023/11/05 04:28:46;;;;;;;30.27;28.73;;;;;;;;;;5058294;28;20032;-59
2023/11/05 04:31:11;;;;;;;30.10;28.52;;;;;;;;;;5062556;28;20428;-61
2023/11/05 04:33:37;;;;;;;31.27;29.67;;;;;;;;;;5060612;28;20029;-59
2023/11/05 04:36:02;;;;;;;30.70;29.10;;;;;;;;;;5057768;28;20028;-59
2023/11/05 04:38:28;;;;;;;26.95;25.55;;;;;;;;;;5063707;28;20038;-59
2023/11/05 04:40:53;;;;;;;32.22;30.52;;;;;;;;;;5059680;28;20384;-59
2023/11/05 04:43:19;;;;;;;28.33;26.85;;;;;;;;;;5061950;28;20059;-62
2023/11/05 04:45:44;;;;;;;29.10;27.60;;;;;;;;;;5058851;28;20061;-63
2023/11/05 04:48:10;;;;;;;25.85;24.50;;;;;;;;;;5058518;28;20044;-63
2023/11/05 04:50:36;;;;;;;26.33;24.70;;;;;;;;;;5049061;28;20439;-63
2023/11/05 04:53:01;;;;;;;26.90;25.50;;;;;;;;;;5063356;28;20028;-60
2023/11/05 04:55:27;;;;;;;28.20;26.73;;;;;;;;;;5065094;28;20776;-59
2023/11/05 04:57:52;;;;;;;27.38;25.95;;;;;;;;;;5063629;28;20131;-62
2023/11/05 05:00:17;;;;;;;27.35;25.90;;;;;;;;;;5062638;28;20136;-59
2023/11/05 05:02:44;;;;;;;27.38;25.95;;;;;;;;;;5062224;28;20023;-63
2023/11/05 05:05:09;;;;;;;27.48;26.05;;;;;;;;;;5062089;28;20071;-63
2023/11/05 05:07:36;;;;;;;28.05;26.50;;;;;;;;;;5058949;28;20067;-63
2023/11/05 05:10:02;;;;;;;27.27;25.85;;;;;;;;;;5068487;28;20081;-60
2023/11/05 05:12:28;;;;;;;26.42;25.02;;;;;;;;;;5065052;28;20033;-63
2023/11/05 05:14:53;;;;;;;29.67;28.10;;;;;;;;;;5058639;28;20040;-64
2023/11/05 05:17:19;;;;;;;28.83;27.02;;;;;;;;;;5064315;28;20082;-64
2023/11/05 05:19:45;;;;;;;28.65;27.05;;;;;;;;;;5062804;28;20251;-64
2023/11/05 05:22:10;;;;;;;26.42;25.02;;;;;;;;;;5062395;28;20037;-59
2023/11/05 05:24:36;;;;;;;28.65;27.17;;;;;;;;;;5062199;28;20105;-64
2023/11/05 05:27:01;;;;;;;28.98;27.45;;;;;;;;;;5068594;28;20019;-60
2023/11/05 05:29:26;;;;;;;27.30;25.88;;;;;;;;;;5061369;28;20048;-59
2023/11/05 05:31:52;;;;;;;28.52;27.00;;;;;;;;;;5062085;28;20041;-59
2023/11/05 05:34:17;;;;;;;26.13;24.75;;;;;;;;;;5062554;28;20506;-59
2023/11/05 05:36:42;;;;;;;26.98;25.55;;;;;;;;;;5062376;28;20063;-60
2023/11/05 05:39:08;;;;;;;28.40;26.90;;;;;;;;;;5064768;28;20024;-63
2023/11/05 05:41:33;;;;;;;28.70;27.17;;;;;;;;;;5061122;28;20027;-63
2023/11/05 05:43:59;;;;;;;28.80;27.17;;;;;;;;;;5063244;28;20461;-63
2023/11/05 05:46:24;;;;;;;27.33;25.90;;;;;;;;;;5059720;28;20052;-60
2023/11/05 05:48:50;;;;;;;27.58;26.15;;;;;;;;;;5065436;28;20033;-60
2023/11/05 05:51:15;;;;;;;27.85;26.38;;;;;;;;;;5062024;28;20033;-59
2023/11/05 05:53:41;;;;;;;28.70;27.10;;;;;;;;;;5059675;28;20692;-59
2023/11/05 05:56:07;;;;;;;29.17;27.67;;;;;;;;;;5065159;28;20469;-63
2023/11/05 05:58:33;;;;;;;29.65;28.05;;;;;;;;;;5063186;28;20044;-64
2023/11/05 06:00:58;;;;;;;28.08;26.58;;;;;;;;;;5061824;28;20044;-63
2023/11/05 06:03:24;;;;;;;27.27;25.88;;;;;;;;;;5062306;28;20458;-59
2023/11/05 06:05:49;;;;;;;29.27;27.77;;;;;;;;;;5062147;28;20033;-63
2023/11/05 06:08:15;;;;;;;29.50;27.80;;;;;;;;;;5063993;28;20033;-64
2023/11/05 06:10:41;;;;;;;28.98;27.48;;;;;;;;;;5055938;28;20105;-62
2023/11/05 06:13:07;;;;;;;27.15;25.75;;;;;;;;;;5062095;28;20431;-60
2023/11/05 06:15:33;;;;;;;27.23;25.83;;;;;;;;;;5060980;28;20275;-63
2023/11/05 06:17:58;;;;;;;28.85;26.92;;;;;;;;;;5061793;28;20029;-64
2023/11/05 06:20:24;;;;;;;28.48;26.98;;;;;;;;;;5063323;28;20035;-64
2023/11/05 06:22:53;;;;;;;29.05;27.30;;;;;;;;;;5064224;28;20343;-59
2023/11/05 06:25:19;;;;;;;27.20;25.77;;;;;;;;;;5064272;28;20120;-59
2023/11/05 06:27:44;;;;;;;27.63;26.02;;;;;;;;;;5063256;28;20103;-62
2023/11/05 06:30:10;;;;;;;28.40;26.83;;;;;;;;;;5061412;28;20046;-63
2023/11/05 06:32:36;;;;;;;29.10;27.60;;;;;;;;;;5062448;28;20036;-63
2023/11/05 06:35:01;;;;;;;27.20;25.80;;;;;;;;;;5063024;28;20048;-65
2023/11/05 06:37:27;;;;;;;27.75;26.33;;;;;;;;;;5061017;28;20054;-68
2023/11/05 06:39:53;;;;;;;26.60;25.20;;;;;;;;;;5062499;28;20036;-64
2023/11/05 06:42:18;;;;;;;28.52;27.02;;;;;;;;;;5064035;28;20059;-64
2023/11/05 06:44:45;;;;;;;27.58;26.10;;;;;;;;;;5059382;28;20047;-65
2023/11/05 06:47:11;;;;;;;28.50;27.00;;;;;;;;;;5064574;28;20051;-65
2023/11/05 06:49:36;;;;;;;27.95;26.50;;;;;;;;;;5060204;28;20083;-61
2023/11/05 06:52:01;;;;;;;30.10;28.50;;;;;;;;;;5061409;28;20068;-62
2023/11/05 06:54:27;;;;;;;28.55;27.05;;;;;;;;;;5062029;28;20024;-62
2023/11/05 06:56:53;;;;;;;32.55;30.27;;;;;;;;;;5059478;28;20029;-62
2023/11/05 06:59:18;;;;;;;28.33;26.83;;;;;;;;;;5061670;28;20040;-61
2023/11/05 07:01:44;;;;;;;27.92;26.48;;;;;;;;;;5062201;28;20024;-61
2023/11/05 07:04:09;;;;;;;30.63;29.02;;;;;;;;;;5063317;28;20032;-62
2023/11/05 07:06:34;;;;;;;28.80;27.30;;;;;;;;;;5059593;28;20135;-60
2023/11/05 07:09:00;;;;;;;28.80;27.30;;;;;;;;;;5062392;28;20036;-60
2023/11/05 07:11:26;;;;;;;27.15;25.75;;;;;;;;;;5062610;28;20482;-59
2023/11/05 07:13:52;;;;;;;29.20;27.70;;;;;;;;;;5057685;28;20118;-60
2023/11/05 07:16:17;;;;;;;33.40;31.60;;;;;;;;;;5059398;28;20354;-60
2023/11/05 07:18:43;;;;;;;32.30;30.58;;;;;;;;;;5063523;28;20123;-66
2023/11/05 07:21:14;;;;;;;35.03;33.20;;;;;;;;;;5061222;28;20068;-68
2023/11/05 07:23:40;;;;;;;33.55;31.85;;;;;;;;;;5064027;28;20123;-66
2023/11/05 07:26:05;;;;;;;35.63;33.83;;;;;;;;;;5063471;28;20115;-66
2023/11/05 07:28:31;;;;;;;33.03;31.33;;;;;;;;;;5062519;28;20450;-60
2023/11/05 07:30:58;;;;;;;35.50;33.70;;;;;;;;;;5061588;28;20413;-61
2023/11/05 07:33:23;;;;;;;31.65;30.05;;;;;;;;;;5060766;28;20043;-61
2023/11/05 07:35:48;;;;;;;36.42;34.53;;;;;;;;;;5061887;28;20044;-62
2023/11/05 07:38:14;;;;;;;38.08;36.03;;;;;;;;;;5061826;28;20051;-63
2023/11/05 07:40:39;;;;;;;35.08;33.28;;;;;;;;;;5064161;28;20036;-60
2023/11/05 07:43:05;;;;;;;31.60;30.00;;;;;;;;;;5063439;28;20035;-69
2023/11/05 07:45:30;;;;;;;30.67;29.02;;;;;;;;;;5063447;28;20120;-70
2023/11/05 07:47:56;;;;;;;26.52;25.13;;;;;;;;;;5066126;28;20107;-60
2023/11/05 07:50:23;;;;;;;29.30;27.80;;;;;;;;;;5060269;28;20140;-60
2023/11/05 07:52:48;;;;;;;25.27;23.98;;;;;;;;;;5058494;28;20028;-70
2023/11/05 07:55:14;;;;;;;26.73;25.33;;;;;;;;;;5058950;28;22154;-61
2023/11/05 07:57:39;;;;;;;26.80;25.33;;;;;;;;;;5060854;28;20039;-62
2023/11/05 08:00:15;;;;;;;25.88;24.48;;;;;;;;;;5056583;28;20106;-61
2023/11/05 08:02:43;;;;;;;25.80;24.40;;;;;;;;;;5061404;28;20017;-62
2023/11/05 08:05:09;;;;;;;25.55;24.23;;;;;;;;;;5058890;28;20426;-61
2023/11/05 08:07:34;;;;;;;24.80;23.50;;;;;;;;;;5062929;28;20043;-70
2023/11/05 08:10:00;;;;;;;26.50;25.02;;;;;;;;;;5046877;28;20029;-71
2023/11/05 08:12:26;;;;;;;25.67;24.33;;;;;;;;;;5077837;28;20115;-71
2023/11/05 08:14:52;;;;;;;25.17;23.88;;;;;;;;;;5060074;28;20130;-71
2023/11/05 08:17:17;;;;;;;26.65;25.15;;;;;;;;;;5056844;28;20253;-67
2023/11/05 08:19:43;;;;;;;25.08;23.77;;;;;;;;;;5058012;28;20131;-69
2023/11/05 08:22:10;;;;;;;26.77;25.33;;;;;;;;;;5058666;28;20032;-61
2023/11/05 08:24:35;;;;;;;25.42;23.92;;;;;;;;;;5062308;28;20035;-69
2023/11/05 08:27:01;;;;;;;25.08;23.77;;;;;;;;;;5058253;28;20033;-70
2023/11/05 08:29:27;;;;;;;26.35;24.95;;;;;;;;;;5061010;28;20037;-60
2023/11/05 08:31:52;;;;;;;25.75;24.38;;;;;;;;;;5062405;28;20032;-61
2023/11/05 08:34:18;;;;;;;25.83;24.45;;;;;;;;;;5064749;28;20044;-61
2023/11/05 08:36:43;;;;;;;27.23;25.83;;;;;;;;;;5061197;28;20116;-69
2023/11/05 08:39:09;;;;;;;25.17;23.88;;;;;;;;;;5061630;28;20056;-69
2023/11/05 08:41:34;;;;;;;25.52;24.23;;;;;;;;;;5057923;28;20167;-69
2023/11/05 08:44:00;;;;;;;24.13;22.83;;;;;;;;;;5062400;28;20032;-61
2023/11/05 08:46:25;;;;;;;23.88;22.58;;;;;;;;;;5063071;28;20243;-61
2023/11/05 08:48:51;;;;;;;25.40;24.10;;;;;;;;;;5061772;28;20070;-70
2023/11/05 08:51:27;;;;;;;25.40;24.10;;;;;;;;;;5064225;28;20071;-66
2023/11/05 08:53:55;;;;;;;26.20;24.80;;;;;;;;;;5066462;28;20096;-61
2023/11/05 08:56:21;;;;;;;23.65;22.38;;;;;;;;;;5060121;28;22005;-68
2023/11/05 08:58:48;;;;;;;23.55;22.33;;;;;;;;;;5063116;28;20191;-68
2023/11/05 09:01:17;;;;;;;24.40;23.10;;;;;;;;;;5062201;28;20470;-69
2023/11/05 09:03:46;;;;;;;25.63;24.30;;;;;;;;;;5062625;28;20051;-69
2023/11/05 09:06:12;;;;;;;26.50;25.10;;;;;;;;;;5061667;28;20593;-61
2023/11/05 09:08:39;;;;;;;25.00;23.70;;;;;;;;;;5058904;28;20033;-69
2023/11/05 09:11:06;;;;;;;24.92;23.63;;;;;;;;;;5063588;28;20028;-69
2023/11/05 09:13:31;;;;;;;25.80;24.42;;;;;;;;;;5061733;28;20033;-62
2023/11/05 09:15:56;;;;;;;31.80;30.17;;;;;;;;;;5059870;28;20105;-61
2023/11/05 09:18:22;;;;;;;31.88;30.23;;;;;;;;;;5058246;28;20517;-62
2023/11/05 09:20:47;;;;;;;32.55;30.85;;;;;;;;;;5060604;28;20044;-67
2023/11/05 09:23:12;;;;;;;30.20;28.60;;;;;;;;;;5059932;28;20028;-68
2023/11/05 09:25:38;;;;;;;31.30;29.70;;;;;;;;;;5063673;28;20434;-67
2023/11/05 09:28:05;;;;;;;30.83;29.23;;;;;;;;;;5057915;28;20501;-68
2023/11/05 09:30:31;;;;;;;33.67;30.73;;;;;;;;;;5059400;28;20062;-62
2023/11/05 09:32:56;;;;;;;37.45;35.55;;;;;;;;;;5060322;28;20039;-62
2023/11/05 09:35:21;;;;;;;38.42;36.45;;;;;;;;;;5062369;28;20072;-61
2023/11/05 09:37:47;;;;;;;41.60;39.47;;;;;;;;;;5064126;28;20103;-66
2023/11/05 09:40:14;;;;;;;38.47;36.53;;;;;;;;;;5065665;28;20063;-62
2023/11/05 09:43:09;;;;;;;36.85;34.97;;;;;;;;;;5066710;28;20115;-64
2023/11/05 09:45:36;;;;;;;32.55;30.85;;;;;;;;;;5062663;28;20039;-67
2023/11/05 09:48:06;;;;;;;34.95;33.15;;;;;;;;;;5069958;28;20797;-67
2023/11/05 09:50:41;;;;;;;33.33;31.63;;;;;;;;;;5062818;28;20050;-66
2023/11/05 09:53:10;;;;;;;31.88;30.25;;;;;;;;;;5066617;28;20542;-62
2023/11/05 09:55:39;;;;;;;29.45;27.95;;;;;;;;;;5068002;28;20552;-63
2023/11/05 09:58:05;;;;;;;27.63;26.23;;;;;;;;;;5070330;28;20047;-66
2023/11/05 10:00:31;;;;;;;23.48;22.17;;;;;;;;;;5064542;28;20387;-67
2023/11/05 10:03:00;;;;;;;23.05;21.83;;;;;;;;;;5063513;28;20037;-62
2023/11/05 10:05:28;;;;;;;22.02;20.83;;;;;;;;;;5064528;28;20032;-68
2023/11/05 10:07:55;;;;;;;22.48;21.17;;;;;;;;;;5063321;28;20037;-68
2023/11/05 10:10:22;;;;;;;21.75;20.55;;;;;;;;;;5065128;28;20043;-62
2023/11/05 10:12:48;;;;;;;22.48;21.27;;;;;;;;;;5061912;28;20032;-68
2023/11/05 10:15:13;;;;;;;22.17;20.65;;;;;;;;;;5062609;28;20028;-62
2023/11/05 10:17:39;;;;;;;22.05;20.65;;;;;;;;;;5046504;28;20132;-63
2023/11/05 10:20:06;;;;;;;21.90;20.70;;;;;;;;;;5063995;28;20096;-67
2023/11/05 10:22:32;;;;;;;20.63;19.52;;;;;;;;;;5062304;28;20118;-62
2023/11/05 10:24:58;;;;;;;20.25;19.15;;;;;;;;;;5063701;28;20032;-67
2023/11/05 10:27:35;;;;;;;21.25;20.10;;;;;;;;;;5058594;28;20041;-63
2023/11/05 10:30:02;;;;;;;21.58;20.40;;;;;;;;;;5065033;28;20366;-63
2023/11/05 10:32:31;;;;;;;22.85;21.63;;;;;;;;;;5061885;28;20033;-68
2023/11/05 10:34:57;;;;;;;20.92;19.80;;;;;;;;;;5063044;28;20489;-62
2023/11/05 10:37:23;;;;;;;21.90;20.70;;;;;;;;;;5062262;28;20378;-62
2023/11/05 10:39:48;;;;;;;20.48;19.38;;;;;;;;;;5064131;28;20029;-68
2023/11/05 10:42:14;;;;;;;21.73;20.52;;;;;;;;;;5066701;28;20017;-63
2023/11/05 10:44:48;;;;;;;21.17;20.02;;;;;;;;;;5065769;28;20032;-68
2023/11/05 10:47:15;;;;;;;21.75;20.55;;;;;;;;;;5063474;28;20067;-63
2023/11/05 10:49:41;;;;;;;21.08;19.98;;;;;;;;;;5066236;28;20774;-62
2023/11/05 10:52:07;;;;;;;22.02;20.63;;;;;;;;;;5066060;28;20074;-62
2023/11/05 10:54:39;;;;;;;21.70;20.50;;;;;;;;;;5065083;28;20538;-63
2023/11/05 10:57:42;;;;;;;21.73;20.52;;;;;;;;;;5065858;28;20029;-62
2023/11/05 11:00:19;;;;;;;22.30;21.10;;;;;;;;;;5044949;28;20024;-69
2023/11/05 11:02:45;;;;;;;21.13;20.02;;;;;;;;;;5062993;28;20648;-62
2023/11/05 11:05:14;;;;;;;22.63;21.42;;;;;;;;;;5062092;28;20355;-69
2023/11/05 11:07:40;;;;;;;22.15;20.95;;;;;;;;;;5062979;28;20072;-62
2023/11/05 11:10:08;;;;;;;24.27;22.98;;;;;;;;;;5065917;28;20484;-62
2023/11/05 11:12:34;;;;;;;23.30;22.10;;;;;;;;;;5064542;28;20064;-62
2023/11/05 11:15:04;;;;;;;23.05;21.85;;;;;;;;;;5063744;28;20028;-69
2023/11/05 11:17:38;;;;;;;22.45;21.25;;;;;;;;;;5065513;28;20036;-61
2023/11/05 11:20:11;;;;;;;23.05;21.77;;;;;;;;;;5062774;28;20033;-69
2023/11/05 11:22:46;;;;;;;23.08;21.85;;;;;;;;;;5067943;28;21004;-61
2023/11/05 11:25:17;;;;;;;22.98;21.75;;;;;;;;;;5062432;28;20128;-61
2023/11/05 11:27:43;;;;;;;;;;;;;;;;;;5067221;28;20039;-61
2023/11/05 11:30:10;;;;;;;20.23;19.13;;;;;;;;;;5063295;28;19913;-69
2023/11/05 11:32:38;;;;;;;21.08;19.98;;;;;;;;;;5061594;28;20094;-61
2023/11/05 11:35:05;;;;;;;21.45;20.30;;;;;;;;;;5066810;28;20036;-68
2023/11/05 11:37:30;;;;;;;24.08;22.77;;;;;;;;;;5060871;28;20477;-67
2023/11/05 11:39:58;;;;;;;22.58;21.38;;;;;;;;;;5061780;28;20036;-61
2023/11/05 11:42:24;;;;;;;23.05;21.83;;;;;;;;;;5062534;28;20153;-61
2023/11/05 11:44:50;;;;;;;23.60;22.33;;;;;;;;;;5064957;28;20062;-68
2023/11/05 11:47:15;;;;;;;23.95;22.67;;;;;;;;;;5065418;28;20036;-61
2023/11/05 11:49:43;;;;;;;23.90;22.60;;;;;;;;;;5062550;28;20039;-61
2023/11/05 11:52:09;;;;;;;24.00;22.70;;;;;;;;;;5062948;28;20790;-61
2023/11/05 11:54:34;;;;;;;26.50;24.80;;;;;;;;;;5063856;28;20178;-61
2023/11/05 11:57:00;;;;;;;27.35;25.45;;;;;;;;;;5063959;28;20535;-67
2023/11/05 11:59:25;;;;;;;26.98;25.58;;;;;;;;;;5061427;28;20037;-69
2023/11/05 12:01:51;;;;;;;25.75;24.40;;;;;;;;;;5063638;28;20096;-68
2023/11/05 12:04:17;;;;;;;27.38;25.77;;;;;;;;;;5064057;28;20051;-68
2023/11/05 12:06:45;;;;;;;24.95;23.65;;;;;;;;;;5061477;28;20082;-68
2023/11/05 12:09:25;;;;;;;26.33;24.90;;;;;;;;;;5063373;28;20174;-61
2023/11/05 12:11:51;;;;;;;27.50;26.08;;;;;;;;;;5063661;28;20166;-68
2023/11/05 12:14:21;;;;;;;27.13;25.73;;;;;;;;;;5061528;28;20040;-62
2023/11/05 12:16:47;;;;;;;28.47;26.97;;;;;;;;;;5058748;28;20466;-69
2023/11/05 12:19:13;;;;;;;30.20;28.60;;;;;;;;;;5063001;28;20107;-62
2023/11/05 12:21:39;;;;;;;30.98;29.35;;;;;;;;;;5059665;28;20036;-62
2023/11/05 12:24:05;;;;;;;35.60;33.78;;;;;;;;;;5065367;28;20025;-62
2023/11/05 12:26:30;;;;;;;36.33;34.47;;;;;;;;;;5060219;28;20064;-70
2023/11/05 12:28:55;;;;;;;38.53;36.55;;;;;;;;;;5063290;28;20061;-70
2023/11/05 12:31:25;;;;;;;33.08;31.38;;;;;;;;;;5061617;28;20135;-64
2023/11/05 12:33:54;;;;;;;30.83;29.23;;;;;;;;;;5064343;28;20123;-72
2023/11/05 12:36:20;;;;;;;30.88;29.27;;;;;;;;;;5061281;28;20027;-69
2023/11/05 12:38:47;;;;;;;31.17;29.58;;;;;;;;;;5048193;28;20029;-70
2023/11/05 12:41:12;;;;;;;30.67;29.08;;;;;;;;;;5064582;28;20032;-69
2023/11/05 12:43:37;;;;;;;27.42;25.98;;;;;;;;;;5062427;28;20077;-66
2023/11/05 12:46:03;;;;;;;28.17;26.70;;;;;;;;;;5061944;28;20047;-62
2023/11/05 12:48:29;;;;;;;26.92;25.52;;;;;;;;;;5061235;28;20173;-62
2023/11/05 12:50:55;;;;;;;30.13;28.55;;;;;;;;;;5061602;28;20071;-61
2023/11/05 12:53:23;;;;;;;32.38;30.67;;;;;;;;;;5063597;28;20055;-71
2023/11/05 12:56:08;;;;;;;30.60;29.00;;;;;;;;;;5062135;28;20370;-69
2023/11/05 12:58:34;;;;;;;32.05;30.40;;;;;;;;;;5061932;28;20042;-68
2023/11/05 13:01:01;;;;;;;32.22;30.52;;;;;;;;;;5061962;28;20160;-69
2023/11/05 13:03:27;;;;;;;30.85;29.25;;;;;;;;;;5065434;28;20060;-69
2023/11/05 13:05:54;;;;;;;31.55;29.95;;;;;;;;;;5059245;28;20594;-68
2023/11/05 13:08:19;;;;;;;32.97;31.27;;;;;;;;;;5060713;28;20040;-68
2023/11/05 13:10:45;;;;;;;33.03;31.33;;;;;;;;;;5064043;28;20102;-68
2023/11/05 13:13:11;;;;;;;37.42;35.50;;;;;;;;;;5063160;28;20041;-68
2023/11/05 13:15:36;;;;;;;28.20;26.70;;;;;;;;;;5068506;28;20103;-68
2023/11/05 13:18:02;;;;;;;27.60;26.20;;;;;;;;;;5069875;28;20043;-61
2023/11/05 13:20:28;;;;;;;28.20;26.70;;;;;;;;;;5067223;28;20054;-68
2023/11/05 13:22:56;;;;;;;27.77;26.33;;;;;;;;;;5067359;28;20048;-61
2023/11/05 13:25:22;;;;;;;28.98;27.48;;;;;;;;;;5066685;28;20359;-60
2023/11/05 13:27:48;;;;;;;26.55;25.15;;;;;;;;;;5069124;28;20274;-69
2023/11/05 13:30:16;;;;;;;27.20;25.80;;;;;;;;;;5064931;28;20476;-68
2023/11/05 13:32:43;;;;;;;25.33;24.02;;;;;;;;;;5065636;28;20060;-67
2023/11/05 13:35:09;;;;;;;24.75;23.45;;;;;;;;;;5068030;28;20043;-68
2023/11/05 13:37:35;;;;;;;29.05;27.55;;;;;;;;;;5068551;28;20040;-67
2023/11/05 13:40:00;;;;;;;27.67;26.17;;;;;;;;;;5065941;28;20351;-60
2023/11/05 13:42:26;;;;;;;25.73;24.35;;;;;;;;;;5067001;28;20024;-61
2023/11/05 13:44:52;;;;;;;25.08;23.77;;;;;;;;;;5064828;28;20093;-69
2023/11/05 13:47:17;;;;;;;28.67;27.17;;;;;;;;;;5065531;28;20379;-67
2023/11/05 13:49:43;;;;;;;27.45;26.05;;;;;;;;;;5063829;28;20032;-64
2023/11/05 13:52:08;;;;;;;26.73;25.33;;;;;;;;;;5063513;28;20109;-69
2023/11/05 13:54:34;;;;;;;27.92;26.45;;;;;;;;;;5067820;28;20479;-65
2023/11/05 13:57:02;;;;;;;38.90;36.92;;;;;;;;;;5068460;28;20461;-65
2023/11/05 13:59:27;;;;;;;35.78;33.97;;;;;;;;;;5063989;28;20032;-63
2023/11/05 14:01:52;;;;;;;32.70;31.00;;;;;;;;;;5062995;28;20111;-61
2023/11/05 14:04:18;;;;;;;33.58;31.88;;;;;;;;;;5065893;28;20104;-68
2023/11/05 14:06:44;;;;;;;30.60;29.00;;;;;;;;;;5064702;28;20036;-67
2023/11/05 14:09:10;;;;;;;31.27;29.67;;;;;;;;;;5062866;28;20469;-61
2023/11/05 14:11:38;;;;;;;37.13;35.22;;;;;;;;;;5051179;28;20437;-66
2023/11/05 14:14:07;;;;;;;34.22;32.42;;;;;;;;;;5065434;28;20041;-61